Time;durP1;ratioP1;P1;durP2;ratioP2;P2;SDS_P1;SDS_P2;PMS_P1;PMS_P2;Temp;Humidity;BMP_temperature;BMP_pressure;BME280_temperature;BME280_humidity;BME280_pressure;Samples;Min_cycle;Max_cycle;Signal;HPM_P1;HPM_P2
2023/04/30 00:00:12;;;;;;;13.05;10.00;;;;;;;7.38;69.09;101714.97;680265;29;1262;-81
2023/04/30 00:00:32;;;;;;;12.60;10.03;;;;;;;7.38;69.13;101713.25;680048;29;1131;-81
2023/04/30 00:00:53;;;;;;;12.43;9.88;;;;;;;7.30;69.14;101698.94;677531;29;1560;-81
2023/04/30 00:01:13;;;;;;;10.65;9.35;;;;;;;7.37;69.08;101715.78;680209;29;1144;-81
2023/04/30 00:01:34;;;;;;;10.60;9.50;;;;;;;7.32;69.10;101710.34;679771;29;1168;-81
2023/04/30 00:01:55;;;;;;;11.68;9.85;;;;;;;7.25;69.08;101697.81;680296;28;1302;-81
2023/04/30 00:02:16;;;;;;;13.10;10.35;;;;;;;7.29;68.97;101704.06;677624;29;1229;-81
2023/04/30 00:02:36;;;;;;;14.00;10.00;;;;;;;7.31;69.12;101716.31;677488;29;1035;-80
2023/04/30 00:02:57;;;;;;;13.13;9.83;;;;;;;7.30;68.88;101709.31;680435;29;821;-81
2023/04/30 00:03:17;;;;;;;12.38;9.70;;;;;;;7.30;69.05;101716.25;677802;29;1298;-81
2023/04/30 00:03:38;;;;;;;14.20;10.00;;;;;;;7.26;68.68;101708.25;680354;28;1391;-81
2023/04/30 00:03:58;;;;;;;14.60;10.10;;;;;;;7.24;68.73;101707.28;682992;29;812;-81
2023/04/30 00:04:19;;;;;;;14.85;10.40;;;;;;;7.24;69.15;101708.97;680344;29;1131;-81
2023/04/30 00:04:40;;;;;;;12.83;10.50;;;;;;;7.18;68.88;101698.25;680267;29;1167;-81
2023/04/30 00:05:00;;;;;;;12.70;10.20;;;;;;;7.19;68.83;101700.94;685715;28;1161;-81
2023/04/30 00:05:21;;;;;;;13.85;10.20;;;;;;;7.19;68.91;101705.25;685454;28;1212;-81
2023/04/30 00:05:41;;;;;;;13.13;10.13;;;;;;;7.15;69.28;101703.25;682745;29;1127;-82
2023/04/30 00:06:02;;;;;;;13.80;10.63;;;;;;;7.13;68.90;101698.00;683327;28;1052;-80
2023/04/30 00:06:23;;;;;;;12.68;10.30;;;;;;;7.17;68.81;101706.88;682694;28;1043;-81
2023/04/30 00:06:43;;;;;;;12.27;10.13;;;;;;;7.25;69.00;101722.06;682849;29;1051;-81
2023/04/30 00:07:04;;;;;;;11.70;9.65;;;;;;;7.18;69.36;101703.47;685560;28;1699;-81
2023/04/30 00:07:24;;;;;;;11.63;9.77;;;;;;;7.19;69.14;101713.03;682720;29;1153;-81
2023/04/30 00:07:45;;;;;;;12.33;9.80;;;;;;;7.19;68.80;101710.44;685486;28;1145;-81
2023/04/30 00:08:05;;;;;;;12.13;9.80;;;;;;;7.17;69.29;101706.88;688308;28;1012;-80
2023/04/30 00:08:26;;;;;;;12.48;9.70;;;;;;;7.20;69.18;101712.22;682632;28;1107;-81
2023/04/30 00:08:46;;;;;;;11.30;9.37;;;;;;;7.11;69.13;101705.69;682263;29;1069;-81
2023/04/30 00:09:07;;;;;;;11.35;9.32;;;;;;;7.11;69.77;101700.50;680308;29;1065;-80
2023/04/30 00:09:28;;;;;;;11.50;9.60;;;;;;;7.11;68.99;101702.19;680010;29;1906;-80
2023/04/30 00:09:50;;;;;;;12.67;9.90;;;;;;;7.10;69.47;101703.91;680195;29;1249;-81
2023/04/30 00:10:10;;;;;;;12.57;9.90;;;;;;;7.06;69.30;101701.94;688209;28;1048;-81
2023/04/30 00:10:52;;;;;;;14.43;9.60;;;;;;;7.15;69.40;101724.03;682668;28;1100;-81
2023/04/30 00:11:13;;;;;;;13.85;9.75;;;;;;;7.06;69.69;101709.72;685343;28;1243;-81
2023/04/30 00:11:33;;;;;;;12.90;10.10;;;;;;;7.09;69.15;101709.91;682803;28;1093;-81
2023/04/30 00:11:54;;;;;;;12.90;10.13;;;;;;;7.08;69.66;101707.22;680189;29;1111;-81
2023/04/30 00:12:15;;;;;;;12.40;10.25;;;;;;;7.07;69.83;101703.72;680157;29;1057;-81
2023/04/30 00:12:36;;;;;;;11.45;9.90;;;;;;;7.16;69.56;101724.13;677517;29;1182;-81
2023/04/30 00:12:57;;;;;;;11.55;9.98;;;;;;;7.12;69.54;101709.16;680385;29;832;-81
2023/04/30 00:13:18;;;;;;;11.05;9.77;;;;;;;7.03;69.45;101695.66;682864;28;1160;-81
2023/04/30 00:13:38;;;;;;;11.10;9.88;;;;;;;7.07;69.18;101710.63;680173;29;1247;-80
2023/04/30 00:13:59;;;;;;;10.97;9.63;;;;;;;7.08;69.54;101712.41;685368;28;1217;-81
2023/04/30 00:14:22;;;;;;;11.20;9.77;;;;;;;7.04;69.44;101708.75;685398;28;1183;-80
2023/04/30 00:14:43;;;;;;;11.75;9.93;;;;;;;7.04;69.35;101711.34;680053;28;1081;-80
2023/04/30 00:15:04;;;;;;;11.80;10.33;;;;;;;7.02;69.21;101699.97;682932;29;1087;-81
2023/04/30 00:15:25;;;;;;;11.63;10.30;;;;;;;7.02;69.77;101706.84;682245;29;1329;-81
2023/04/30 00:15:45;;;;;;;11.93;10.40;;;;;;;7.05;69.40;101707.94;682804;29;988;-80
2023/04/30 00:16:06;;;;;;;12.50;10.23;;;;;;;7.01;69.63;101705.97;680404;29;1182;-81
2023/04/30 00:16:26;;;;;;;13.00;10.40;;;;;;;7.04;69.45;101716.53;679968;29;1030;-81
2023/04/30 00:16:47;;;;;;;12.50;10.20;;;;;;;7.03;69.41;101713.84;680141;29;1082;-81
2023/04/30 00:17:08;;;;;;;13.18;10.63;;;;;;;7.03;69.67;101716.44;682893;28;1015;-80
2023/04/30 00:17:28;;;;;;;13.17;10.50;;;;;;;7.04;69.44;101716.53;685362;28;1102;-80
2023/04/30 00:17:49;;;;;;;13.80;11.00;;;;;;;7.06;69.76;101714.91;682813;28;1087;-81
2023/04/30 00:18:10;;;;;;;13.18;10.60;;;;;;;6.97;69.75;101698.81;680307;29;1295;-81
2023/04/30 00:18:30;;;;;;;12.60;10.57;;;;;;;7.05;69.90;101720.03;682218;29;1167;-81
2023/04/30 00:18:51;;;;;;;12.33;10.40;;;;;;;7.04;69.61;101705.25;682950;28;1108;-81
2023/04/30 00:19:12;;;;;;;11.40;10.20;;;;;;;7.05;69.23;101712.25;680630;29;1080;-81
2023/04/30 00:19:32;;;;;;;12.43;10.20;;;;;;;7.01;69.51;101712.84;682643;29;1272;-81
2023/04/30 00:19:53;;;;;;;13.13;10.35;;;;;;;7.02;69.71;101704.25;682777;28;1268;-80
2023/04/30 00:20:14;;;;;;;14.97;10.70;;;;;;;7.05;69.85;101717.44;685053;28;1293;-81
2023/04/30 00:20:34;;;;;;;15.80;10.85;;;;;;;6.98;69.35;101700.59;680073;29;1192;-81
2023/04/30 00:20:55;;;;;;;14.75;10.68;;;;;;;7.00;69.61;101711.94;685473;28;1197;-81
2023/04/30 00:21:25;;;;;;;13.02;10.90;;;;;;;7.03;69.68;101709.56;685427;28;1072;-80
2023/04/30 00:21:46;;;;;;;12.63;10.65;;;;;;;7.06;69.91;101721.81;680196;28;1125;-81
2023/04/30 00:22:07;;;;;;;12.90;10.90;;;;;;;6.99;69.62;101712.75;685686;28;1025;-81
2023/04/30 00:22:28;;;;;;;14.88;11.20;;;;;;;6.99;70.06;101712.75;684367;28;1416;-80
2023/04/30 00:22:48;;;;;;;15.15;11.73;;;;;;;6.97;69.97;101712.69;680107;29;1500;-80
2023/04/30 00:23:09;;;;;;;16.27;11.80;;;;;;;7.01;70.19;101720.66;682643;29;1145;-81
2023/04/30 00:23:29;;;;;;;14.90;11.85;;;;;;;6.95;69.73;101716.00;682713;28;1203;-81
2023/04/30 00:23:50;;;;;;;14.85;11.65;;;;;;;7.01;69.87;101726.75;682790;29;1087;-81
2023/04/30 00:24:11;;;;;;;13.90;11.43;;;;;;;6.98;69.92;101714.47;682967;29;1025;-81
2023/04/30 00:24:31;;;;;;;13.10;11.32;;;;;;;7.02;69.90;101723.34;679980;29;1160;-81
2023/04/30 00:24:52;;;;;;;12.43;11.13;;;;;;;6.98;69.55;101719.66;682910;29;1011;-81
2023/04/30 00:25:12;;;;;;;12.37;10.97;;;;;;;6.93;69.79;101712.44;685552;28;1130;-81
2023/04/30 00:25:34;;;;;;;12.95;11.23;;;;;;;6.99;69.98;101717.94;682722;29;1183;-81
2023/04/30 00:25:54;;;;;;;14.52;11.68;;;;;;;6.93;69.86;101715.03;684996;28;1149;-81
2023/04/30 00:26:15;;;;;;;14.53;11.87;;;;;;;6.98;70.08;101723.94;688260;28;1137;-81
2023/04/30 00:26:41;;;;;;;15.63;11.63;;;;;;;6.93;69.85;101715.91;680195;29;1107;-80
2023/04/30 00:27:02;;;;;;;14.98;11.60;;;;;;;6.88;69.62;101708.66;680050;28;1110;-80
2023/04/30 00:27:22;;;;;;;15.30;11.20;;;;;;;6.91;69.78;101714.03;680349;29;1048;-80
2023/04/30 00:27:43;;;;;;;12.87;10.33;;;;;;;6.91;69.94;101716.63;685642;28;1276;-81
2023/04/30 00:28:04;;;;;;;13.20;10.05;;;;;;;6.95;70.18;101723.78;680544;29;1033;-81
2023/04/30 00:28:24;;;;;;;12.52;10.30;;;;;;;6.92;70.20;101716.72;685443;28;1177;-81
2023/04/30 00:28:45;;;;;;;12.90;10.70;;;;;;;6.86;70.43;101708.56;685468;28;999;-80
2023/04/30 00:29:06;;;;;;;12.33;10.83;;;;;;;6.89;70.39;101715.63;680423;28;1166;-81
2023/04/30 00:29:26;;;;;;;12.90;11.00;;;;;;;6.84;70.53;101713.69;682967;28;1976;-81
2023/04/30 00:29:47;;;;;;;13.73;11.10;;;;;;;6.83;70.00;101711.00;685924;28;1043;-81
2023/04/30 00:30:08;;;;;;;13.52;11.20;;;;;;;6.95;70.19;101731.56;685994;28;953;-81
2023/04/30 00:30:29;;;;;;;13.68;11.57;;;;;;;6.82;70.10;101707.50;685636;28;1296;-81
2023/04/30 00:31:21;;;;;;;14.80;11.80;;;;;;;6.95;70.16;101736.75;683358;28;1304;-80
2023/04/30 00:32:37;;;;;;;14.82;11.02;;;;;;;6.94;70.34;101724.59;680471;29;1446;-80
2023/04/30 00:32:58;;;;;;;13.55;11.48;;;;;;;6.80;70.21;101711.69;685676;28;1349;-80
2023/04/30 00:33:18;;;;;;;13.98;11.60;;;;;;;6.91;70.49;101729.59;683051;28;1178;-80
2023/04/30 00:33:39;;;;;;;14.37;11.57;;;;;;;6.82;70.37;101715.28;685797;28;1186;-80
2023/04/30 00:33:59;;;;;;;14.30;11.70;;;;;;;6.83;70.11;101711.00;688341;28;1174;-80
2023/04/30 00:34:20;;;;;;;15.02;11.93;;;;;;;6.82;70.19;101710.09;682911;28;1115;-81
2023/04/30 00:34:41;;;;;;;17.80;12.20;;;;;;;6.82;70.45;101710.09;682998;28;1230;-80
2023/04/30 00:35:01;;;;;;;17.88;12.10;;;;;;;6.90;70.25;101730.41;683085;28;1056;-80
2023/04/30 00:35:22;;;;;;;16.20;11.63;;;;;;;6.82;70.26;101707.50;688323;28;945;-80
2023/04/30 00:35:43;;;;;;;13.60;11.23;;;;;;;6.85;70.08;101720.66;690914;28;1159;-80
2023/04/30 00:36:04;;;;;;;12.93;11.23;;;;;;;6.87;70.28;101719.84;680333;29;1037;-81
2023/04/30 00:36:24;;;;;;;13.50;11.50;;;;;;;6.82;70.67;101715.28;680054;28;1059;-80
2023/04/30 00:36:45;;;;;;;15.00;11.50;;;;;;;6.81;70.33;101712.63;680086;29;1156;-81
2023/04/30 00:37:05;;;;;;;16.20;11.15;;;;;;;6.81;70.75;101708.31;680336;29;1202;-81
2023/04/30 00:37:26;;;;;;;16.93;10.97;;;;;;;6.88;70.49;101713.84;685414;28;1101;-80
2023/04/30 00:37:46;;;;;;;16.58;11.52;;;;;;;6.89;70.89;101710.44;683003;29;1010;-80
2023/04/30 00:38:07;;;;;;;15.38;11.65;;;;;;;6.84;70.63;101708.50;680279;29;1058;-80
2023/04/30 00:38:28;;;;;;;14.53;11.90;;;;;;;6.89;70.54;101705.25;680220;29;1136;-80
2023/04/30 00:38:48;;;;;;;13.73;11.55;;;;;;;6.99;70.72;101728.34;682870;28;1169;-80
2023/04/30 00:39:09;;;;;;;15.02;12.00;;;;;;;6.92;70.41;101710.63;685581;28;1221;-81
2023/04/30 00:39:29;;;;;;;15.90;12.40;;;;;;;6.93;70.51;101709.84;682679;28;1272;-80
2023/04/30 00:39:50;;;;;;;15.88;12.43;;;;;;;6.97;70.59;101715.28;677625;29;1061;-80
2023/04/30 00:40:11;;;;;;;15.50;12.35;;;;;;;6.98;70.41;101710.97;682890;28;1154;-80
2023/04/30 00:40:36;;;;;;;15.50;12.40;;;;;;;6.99;70.10;101723.16;685458;28;1101;-80
2023/04/30 00:40:57;;;;;;;16.73;13.00;;;;;;;7.08;70.41;101739.28;682786;29;886;-81
2023/04/30 00:41:18;;;;;;;16.02;12.38;;;;;;;6.98;70.44;101722.28;685286;28;1323;-80
2023/04/30 00:41:38;;;;;;;15.50;12.27;;;;;;;7.02;70.10;101727.63;680100;29;1186;-80
2023/04/30 00:41:59;;;;;;;13.88;11.70;;;;;;;7.01;70.38;101724.16;682981;28;768;-80
2023/04/30 00:42:20;;;;;;;13.50;11.50;;;;;;;7.01;70.33;101726.75;682627;28;1291;-80
2023/04/30 00:42:40;;;;;;;13.57;11.57;;;;;;;6.99;70.40;101712.75;682815;28;1225;-81
2023/04/30 00:43:01;;;;;;;13.70;11.33;;;;;;;6.97;70.25;101714.38;682819;29;1275;-80
2023/04/30 00:43:24;;;;;;;15.18;11.13;;;;;;;7.07;70.67;101734.00;677378;28;1876;-81
2023/04/30 00:43:46;;;;;;;14.15;10.52;;;;;;;7.03;70.26;101730.31;682688;28;1461;-81
2023/04/30 00:44:06;;;;;;;13.38;10.32;;;;;;;6.98;70.12;101723.94;682826;28;1329;-81
2023/04/30 00:44:27;;;;;;;13.50;10.98;;;;;;;7.02;70.23;101732.81;682683;28;1202;-81
2023/04/30 00:44:48;;;;;;;14.00;11.35;;;;;;;7.01;70.80;101724.16;677575;28;1012;-80
2023/04/30 00:45:09;;;;;;;13.97;11.90;;;;;;;6.94;70.25;101720.28;683009;29;989;-82
2023/04/30 00:45:29;;;;;;;14.10;11.70;;;;;;;6.96;70.46;101730.75;685284;28;1202;-81
2023/04/30 00:45:50;;;;;;;14.13;11.65;;;;;;;6.98;70.13;101732.66;685417;28;1148;-82
2023/04/30 00:46:11;;;;;;;13.60;11.55;;;;;;;6.87;70.64;101714.66;682881;28;1145;-82
2023/04/30 00:46:31;;;;;;;12.90;11.50;;;;;;;6.85;70.65;101715.47;682691;28;1415;-82
2023/04/30 00:46:52;;;;;;;13.27;11.37;;;;;;;6.89;70.76;101726.03;682719;28;1262;-81
2023/04/30 00:47:13;;;;;;;13.27;10.95;;;;;;;6.84;70.41;101720.56;682924;28;996;-81
2023/04/30 00:47:33;;;;;;;13.43;10.93;;;;;;;6.85;70.39;101731.03;680166;29;1116;-81
2023/04/30 00:47:55;;;;;;;12.90;10.82;;;;;;;6.86;70.32;101731.91;680120;28;1298;-81
2023/04/30 00:48:16;;;;;;;13.50;10.85;;;;;;;6.82;70.40;101722.19;682582;29;1304;-81
2023/04/30 00:48:36;;;;;;;13.27;11.05;;;;;;;6.79;70.85;101724.56;682860;28;1023;-81
2023/04/30 00:48:58;;;;;;;12.88;11.23;;;;;;;6.82;70.86;101736.03;682884;29;796;-80
2023/04/30 00:49:19;;;;;;;13.77;11.38;;;;;;;6.80;70.33;101727.28;682560;28;1223;-80
2023/04/30 00:49:40;;;;;;;14.18;11.20;;;;;;;6.79;70.73;101730.69;685370;28;1902;-81
2023/04/30 00:50:01;;;;;;;14.57;11.70;;;;;;;6.76;70.40;101722.69;685522;28;832;-80
2023/04/30 00:50:22;;;;;;;13.03;11.53;;;;;;;6.82;70.55;101735.16;685481;28;1110;-81
2023/04/30 00:50:43;;;;;;;15.00;11.98;;;;;;;6.77;70.93;101729.69;682739;29;1119;-81
2023/04/30 00:51:05;;;;;;;15.60;11.32;;;;;;;6.73;70.28;101716.47;679434;29;2023;-81
2023/04/30 00:51:28;;;;;;;15.73;11.02;;;;;;;6.81;70.41;101744.63;679843;29;1249;-81
2023/04/30 00:51:49;;;;;;;13.40;10.63;;;;;;;6.73;70.43;101726.84;680191;29;1103;-81
2023/04/30 00:52:10;;;;;;;13.43;10.85;;;;;;;6.74;70.77;101724.31;682897;28;1277;-81
2023/04/30 00:52:31;;;;;;;12.80;11.10;;;;;;;6.72;70.47;101731.13;679971;29;1055;-80
2023/04/30 00:52:52;;;;;;;12.20;10.82;;;;;;;6.74;70.76;101732.09;680146;28;1579;-81
2023/04/30 00:53:13;;;;;;;12.63;10.97;;;;;;;6.78;70.67;101738.34;680107;29;930;-81
2023/04/30 00:53:34;;;;;;;12.77;11.02;;;;;;;6.70;70.61;101722.31;680043;29;1212;-81
2023/04/30 00:53:55;;;;;;;14.07;11.30;;;;;;;6.71;70.52;101731.91;680152;29;1447;-81
2023/04/30 00:54:16;;;;;;;14.13;11.13;;;;;;;6.69;70.52;101728.31;677446;29;1162;-80
2023/04/30 00:54:37;;;;;;;14.85;11.07;;;;;;;6.69;70.49;101723.13;679992;29;1284;-81
2023/04/30 00:54:58;;;;;;;12.65;10.70;;;;;;;6.67;70.57;101727.31;682919;29;902;-81
2023/04/30 00:55:19;;;;;;;14.80;10.90;;;;;;;6.66;70.75;101728.13;682649;28;1081;-80
2023/04/30 00:55:40;;;;;;;15.70;11.20;;;;;;;6.63;70.63;101722.75;682841;28;1146;-81
2023/04/30 00:56:01;;;;;;;15.40;11.18;;;;;;;6.66;70.53;101733.31;680228;29;859;-81
2023/04/30 00:56:22;;;;;;;13.60;10.95;;;;;;;6.67;70.54;101735.09;677504;29;1245;-81
2023/04/30 00:56:42;;;;;;;12.90;10.70;;;;;;;6.67;70.39;101732.50;680002;29;1475;-81
2023/04/30 00:57:04;;;;;;;13.13;10.70;;;;;;;6.65;70.73;101735.03;680607;29;1035;-81
2023/04/30 00:57:25;;;;;;;13.30;11.18;;;;;;;6.69;70.64;101741.28;677854;29;1341;-81
2023/04/30 00:57:46;;;;;;;14.60;11.63;;;;;;;6.67;70.64;101740.28;680568;29;1256;-80
2023/04/30 00:58:07;;;;;;;15.30;12.10;;;;;;;6.65;70.92;101739.28;686015;28;1348;-81
2023/04/30 00:58:28;;;;;;;15.50;11.75;;;;;;;6.65;70.89;101736.72;680528;29;1160;-81
2023/04/30 00:58:50;;;;;;;14.45;11.50;;;;;;;6.69;70.93;101743.88;686096;28;993;-81
2023/04/30 00:59:12;;;;;;;14.10;11.55;;;;;;;6.64;70.70;101735.78;680776;29;977;-80
2023/04/30 00:59:33;;;;;;;13.80;11.85;;;;;;;6.64;70.81;101737.50;683104;28;1048;-81
2023/04/30 00:59:54;;;;;;;12.80;11.25;;;;;;;6.57;70.47;101728.47;680665;29;1353;-81
2023/04/30 01:00:15;;;;;;;12.93;10.90;;;;;;;6.54;70.62;101720.50;678072;29;1116;-81
2023/04/30 01:00:42;;;;;;;12.60;10.80;;;;;;;6.64;70.74;101746.16;678020;29;1082;-81
2023/04/30 01:01:03;;;;;;;13.55;10.82;;;;;;;6.61;70.43;101745.09;680769;29;1033;-81
2023/04/30 01:01:27;;;;;;;13.50;10.90;;;;;;;6.58;70.78;101732.84;680564;29;1161;-80
2023/04/30 01:01:48;;;;;;;14.07;11.05;;;;;;;6.55;70.89;101736.16;682355;28;1308;-80
2023/04/30 01:02:09;;;;;;;15.15;11.40;;;;;;;6.58;70.92;101745.81;683503;28;1071;-80
2023/04/30 01:02:30;;;;;;;16.52;11.10;;;;;;;6.51;70.53;101731.56;680377;29;1258;-80
2023/04/30 01:02:51;;;;;;;16.15;11.20;;;;;;;6.54;70.88;101736.97;680530;29;1107;-81
2023/04/30 01:03:13;;;;;;;15.80;11.43;;;;;;;6.57;70.66;101739.72;678245;29;1174;-81
2023/04/30 01:03:36;;;;;;;14.60;11.70;;;;;;;6.51;71.05;101731.56;680597;29;1009;-81
2023/04/30 01:03:58;;;;;;;14.93;11.73;;;;;;;6.55;70.71;101741.34;683456;29;935;-81
2023/04/30 01:04:19;;;;;;;14.45;11.38;;;;;;;6.50;70.83;101734.09;685763;28;1008;-80
2023/04/30 01:04:40;;;;;;;14.82;11.40;;;;;;;6.41;70.84;101732.75;685946;28;1132;-81
2023/04/30 01:05:02;;;;;;;14.60;10.93;;;;;;;6.50;70.79;101734.09;683329;29;1351;-80
2023/04/30 01:05:22;;;;;;;14.40;11.10;;;;;;;6.47;71.07;101731.31;685979;28;1099;-80
2023/04/30 01:05:43;;;;;;;13.85;11.40;;;;;;;6.47;71.04;101727.03;680651;29;990;-81
2023/04/30 01:06:04;;;;;;;14.57;12.20;;;;;;;6.50;71.26;101732.38;680746;29;1197;-80
2023/04/30 01:06:25;;;;;;;14.20;12.20;;;;;;;6.49;70.83;101735.78;680597;29;1076;-82
2023/04/30 01:06:46;;;;;;;13.65;11.73;;;;;;;6.58;70.98;101744.09;681207;29;1105;-80
2023/04/30 01:07:07;;;;;;;15.02;11.45;;;;;;;6.53;70.85;101737.78;681284;29;1100;-80
2023/04/30 01:07:27;;;;;;;15.45;11.48;;;;;;;6.52;71.01;101738.53;685880;28;1303;-81
2023/04/30 01:07:49;;;;;;;17.88;11.85;;;;;;;6.49;71.37;101728.00;683288;28;1325;-81
2023/04/30 01:08:10;;;;;;;16.05;11.90;;;;;;;6.58;71.17;101740.63;683407;29;1445;-80
2023/04/30 01:08:32;;;;;;;15.68;12.15;;;;;;;6.53;70.97;101732.59;683262;29;1197;-81
2023/04/30 01:08:53;;;;;;;15.35;12.50;;;;;;;6.61;71.06;101745.09;678122;29;922;-81
2023/04/30 01:09:15;;;;;;;16.48;12.88;;;;;;;6.57;70.88;101738.84;680670;29;1155;-80
2023/04/30 01:09:35;;;;;;;15.98;12.77;;;;;;;6.50;70.87;101726.31;680513;29;1973;-81
2023/04/30 01:09:57;;;;;;;17.27;12.48;;;;;;;6.54;71.29;101739.56;683315;29;1082;-81
2023/04/30 01:10:18;;;;;;;16.90;12.30;;;;;;;6.53;70.61;101731.69;683357;29;1187;-80
2023/04/30 01:10:50;;;;;;;17.45;12.30;;;;;;;6.51;71.06;101734.16;680689;29;1147;-81
2023/04/30 01:11:33;;;;;;;15.30;12.13;;;;;;;6.53;70.89;101736.88;683293;29;1170;-81
2023/04/30 01:12:17;;;;;;;13.85;12.02;;;;;;;6.53;71.17;101742.06;680466;28;1115;-81
2023/04/30 01:12:57;;;;;;;15.75;12.50;;;;;;;6.55;70.63;101751.72;683092;29;1134;-81
2023/04/30 01:13:51;;;;;;;13.93;11.85;;;;;;;6.51;70.78;101748.84;683126;28;1099;-81
2023/04/30 01:14:29;;;;;;;13.70;11.38;;;;;;;6.46;71.13;101751.16;680684;28;1137;-81
2023/04/30 01:15:17;;;;;;;13.77;11.18;;;;;;;6.35;71.04;101726.28;683252;29;1134;-81
2023/04/30 01:15:45;;;;;;;14.57;11.30;;;;;;;6.34;70.92;101725.38;685959;28;1105;-80
2023/04/30 01:16:23;;;;;;;14.15;10.90;;;;;;;6.29;70.66;101726.78;685047;28;1051;-81
2023/04/30 01:17:05;;;;;;;12.70;10.80;;;;;;;6.26;70.80;101717.13;680494;28;997;-81
2023/04/30 01:19:07;;;;;;;14.38;11.35;;;;;;;6.22;70.87;101735.00;688940;28;1390;-80
2023/04/30 01:19:37;;;;;;;15.32;11.90;;;;;;;6.28;71.22;101746.63;686239;28;1141;-81
2023/04/30 01:19:58;;;;;;;15.07;11.93;;;;;;;6.15;71.01;101723.38;680979;29;800;-81
2023/04/30 01:20:19;;;;;;;16.98;12.23;;;;;;;6.13;70.79;101719.75;683782;29;1108;-80
2023/04/30 01:20:47;;;;;;;16.48;11.77;;;;;;;6.13;70.77;101715.50;681149;29;1105;-80
2023/04/30 01:21:08;;;;;;;13.55;11.10;;;;;;;6.15;71.17;101719.06;681239;29;1463;-81
2023/04/30 01:21:32;;;;;;;14.02;11.60;;;;;;;6.19;70.73;101730.50;686240;28;1228;-81
2023/04/30 01:21:54;;;;;;;14.70;12.23;;;;;;;6.16;70.89;101718.25;683768;28;2089;-81
2023/04/30 01:22:27;;;;;;;15.07;12.60;;;;;;;6.25;71.33;101736.09;678413;29;1086;-80
2023/04/30 01:23:07;;;;;;;14.25;12.27;;;;;;;6.15;70.92;101718.19;682944;29;947;-80
2023/04/30 01:23:53;;;;;;;13.20;11.80;;;;;;;6.27;71.02;101742.25;683546;28;1135;-80
2023/04/30 01:24:29;;;;;;;13.68;12.18;;;;;;;6.26;71.03;101732.69;686082;28;1004;-80
2023/04/30 01:25:24;;;;;;;13.43;11.98;;;;;;;6.43;70.92;101715.56;683778;28;1898;-80
2023/04/30 01:26:10;;;;;;;14.46;9.76;;;;;;;6.61;70.36;101734.72;683992;29;1117;-80
2023/04/30 01:26:47;;;;;;;16.42;10.65;;;;;;;6.62;69.83;101734.81;683875;29;1156;-80
2023/04/30 01:27:47;;;;;;;15.93;10.35;;;;;;;6.66;69.45;101735.91;683577;28;1100;-80
2023/04/30 01:28:27;;;;;;;15.27;10.23;;;;;;;6.61;69.69;101733.03;678081;29;1543;-80
2023/04/30 01:28:51;;;;;;;14.20;9.70;;;;;;;6.61;69.19;101734.72;680366;29;1138;-80
2023/04/30 01:29:15;;;;;;;13.70;9.60;;;;;;;6.63;69.52;101740.91;686157;28;964;-80
2023/04/30 01:29:38;;;;;;;14.35;9.90;;;;;;;6.51;69.13;101713.41;688507;28;1906;-80
2023/04/30 01:30:02;;;;;;;14.25;10.10;;;;;;;6.61;69.35;101734.72;688736;28;1326;-80
2023/04/30 01:30:24;;;;;;;12.77;9.77;;;;;;;6.57;69.27;101729.34;680745;29;1016;-80
2023/04/30 01:30:45;;;;;;;12.10;9.90;;;;;;;6.52;69.08;101725.56;680753;29;1122;-80
2023/04/30 01:31:18;;;;;;;12.82;9.70;;;;;;;6.51;69.30;101723.78;682992;28;1311;-81
2023/04/30 01:31:42;;;;;;;13.68;9.70;;;;;;;6.51;69.08;101722.91;680672;28;2064;-80
2023/04/30 01:32:03;;;;;;;14.77;10.10;;;;;;;6.52;68.75;101725.56;678139;29;1096;-80
2023/04/30 01:32:24;;;;;;;16.77;9.93;;;;;;;6.47;69.52;101720.94;680495;29;1357;-81
2023/04/30 01:32:45;;;;;;;15.65;9.95;;;;;;;6.50;69.49;101721.13;680723;29;1106;-80
2023/04/30 01:33:05;;;;;;;18.43;10.03;;;;;;;6.56;69.00;101737.03;680771;29;1540;-80
2023/04/30 01:33:26;;;;;;;16.30;10.10;;;;;;;6.44;68.88;101713.84;680462;29;1200;-80
2023/04/30 01:33:46;;;;;;;15.67;9.50;;;;;;;6.43;68.60;101715.56;686051;28;1177;-81
2023/04/30 01:34:07;;;;;;;13.60;9.57;;;;;;;6.49;68.82;101733.19;683444;28;965;-80
2023/04/30 01:34:28;;;;;;;13.70;9.50;;;;;;;6.52;68.66;101741.13;683263;28;1119;-81
2023/04/30 01:34:48;;;;;;;14.98;9.75;;;;;;;6.45;69.07;101733.81;688610;28;1078;-80
2023/04/30 01:35:09;;;;;;;14.73;9.33;;;;;;;6.37;68.42;101724.66;686005;28;1119;-80
2023/04/30 01:35:38;;;;;;;14.75;9.38;;;;;;;6.51;69.00;101741.06;683104;28;1243;-81
2023/04/30 01:36:02;;;;;;;13.23;9.02;;;;;;;6.50;68.76;101747.94;685967;28;948;-80
2023/04/30 01:36:43;;;;;;;11.55;8.70;;;;;;;6.42;68.87;101741.41;683229;28;1124;-81
2023/04/30 01:37:41;;;;;;;13.48;9.00;;;;;;;6.50;68.89;101752.25;686005;28;1083;-81
2023/04/30 01:38:18;;;;;;;15.02;8.90;;;;;;;6.42;68.72;101744.00;685949;28;787;-81
2023/04/30 01:39:01;;;;;;;16.77;8.88;;;;;;;6.46;68.69;101751.16;691090;28;1579;-81
2023/04/30 01:39:47;;;;;;;14.57;8.90;;;;;;;6.37;68.68;101729.84;688674;28;1115;-80
2023/04/30 01:40:24;;;;;;;12.73;9.02;;;;;;;6.35;68.65;101737.53;686005;28;1152;-80
2023/04/30 01:40:52;;;;;;;14.15;9.23;;;;;;;6.42;68.88;101744.00;684156;28;1063;-80
2023/04/30 01:41:39;;;;;;;13.68;9.20;;;;;;;6.42;68.55;101749.19;683270;28;1214;-80
2023/04/30 01:42:22;;;;;;;12.75;9.32;;;;;;;6.43;68.76;101750.97;684734;28;1197;-80
2023/04/30 01:42:52;;;;;;;12.48;9.07;;;;;;;6.29;69.01;101725.13;683223;28;1196;-81
2023/04/30 01:43:29;;;;;;;11.15;8.82;;;;;;;6.43;68.85;101748.38;683095;29;986;-81
2023/04/30 01:44:00;;;;;;;12.23;9.25;;;;;;;6.37;68.64;101735.03;683327;29;1036;-81
2023/04/30 01:44:39;;;;;;;13.88;9.20;;;;;;;6.44;68.96;101752.75;683150;29;1068;-81
2023/04/30 01:45:08;;;;;;;16.70;9.63;;;;;;;6.47;69.05;101757.22;684152;28;820;-81
2023/04/30 01:45:38;;;;;;;15.82;9.70;;;;;;;6.37;68.72;101737.63;685638;28;1131;-81
2023/04/30 01:46:17;;;;;;;13.18;9.85;;;;;;;6.39;68.73;101743.81;685890;28;891;-81
2023/04/30 01:46:41;;;;;;;16.20;10.02;;;;;;;6.38;68.98;101742.03;683025;28;1163;-80
2023/04/30 01:47:06;;;;;;;16.67;10.00;;;;;;;6.41;69.02;101752.56;685987;28;1166;-81
2023/04/30 01:47:37;;;;;;;13.95;9.55;;;;;;;6.44;68.69;101758.84;677730;28;1131;-81
2023/04/30 01:48:49;;;;;;;12.48;9.40;;;;;;;6.41;68.64;101758.66;677836;29;917;-80
2023/04/30 01:49:29;;;;;;;13.68;9.27;;;;;;;6.33;68.89;101751.22;688539;28;1238;-81
2023/04/30 01:50:13;;;;;;;13.95;9.30;;;;;;;6.39;69.07;101765.44;685810;28;1162;-81
2023/04/30 01:50:33;;;;;;;14.15;9.30;;;;;;;6.40;68.95;101766.34;685894;28;1088;-81
2023/04/30 01:51:31;;;;;;;14.45;9.50;;;;;;;6.39;68.75;101756.78;683399;28;1135;-82
2023/04/30 01:52:01;;;;;;;12.60;9.10;;;;;;;6.27;68.98;101743.97;685935;28;993;-80
2023/04/30 01:52:28;;;;;;;14.90;9.60;;;;;;;6.35;68.75;101757.38;682159;28;1141;-80
2023/04/30 01:52:52;;;;;;;15.23;9.85;;;;;;;6.22;68.85;101735.00;679544;29;1001;-81
2023/04/30 01:53:19;;;;;;;14.05;9.60;;;;;;;6.22;68.62;101743.69;680674;29;1087;-81
2023/04/30 01:53:44;;;;;;;14.90;9.20;;;;;;;6.24;68.60;101749.84;677975;29;1206;-81
2023/04/30 01:54:34;;;;;;;15.13;9.50;;;;;;;6.23;68.64;101757.53;680739;29;1276;-80
2023/04/30 01:55:04;;;;;;;12.45;9.75;;;;;;;6.26;68.36;101766.38;680750;29;1353;-81
2023/04/30 01:55:41;;;;;;;13.80;10.15;;;;;;;6.28;68.76;101762.19;678132;29;1119;-80
2023/04/30 01:56:05;;;;;;;13.50;9.57;;;;;;;6.16;68.81;101745.88;677899;28;1249;-80
2023/04/30 01:56:34;;;;;;;13.07;9.65;;;;;;;6.16;68.51;101745.88;677773;29;1289;-80
2023/04/30 01:57:03;;;;;;;12.55;9.35;;;;;;;6.16;68.45;101756.25;680656;29;1219;-80
2023/04/30 01:57:37;;;;;;;12.07;9.07;;;;;;;6.09;68.26;101744.63;683017;28;1287;-80
2023/04/30 01:58:00;;;;;;;13.85;9.52;;;;;;;6.14;68.71;101755.28;685970;28;799;-80
2023/04/30 01:58:23;;;;;;;12.93;9.60;;;;;;;6.12;68.84;101754.25;683058;28;1303;-81
2023/04/30 01:58:47;;;;;;;11.70;9.50;;;;;;;6.08;68.42;101749.69;680526;28;994;-81
2023/04/30 01:59:09;;;;;;;12.68;9.45;;;;;;;6.08;68.70;101744.53;677989;29;1235;-81
2023/04/30 01:59:38;;;;;;;13.32;9.20;;;;;;;6.07;68.78;101745.31;677795;29;1061;-81